createdAt,value
2022-11-14T00:02:09.991Z,31.3
2022-11-14T00:07:38.487Z,31.3
2022-11-14T00:13:16.675Z,31.3
2022-11-14T00:18:07.359Z,31.3
2022-11-14T00:23:46.308Z,31.3
2022-11-14T00:29:24.004Z,31.2
2022-11-14T00:35:02.023Z,31.2
2022-11-14T00:40:09.612Z,31.1
2022-11-14T00:45:31.948Z,31.1
2022-11-14T00:51:09.152Z,31.1
2022-11-14T00:56:47.191Z,31.1
2022-11-14T01:02:30.966Z,31.1
2022-11-14T01:08:08.104Z,31
2022-11-14T01:19:08.551Z,30.9
2022-11-14T01:24:36.245Z,30.9
2022-11-14T01:30:14.213Z,30.9
2022-11-14T01:41:14.029Z,30.9
2022-11-14T01:46:57.584Z,30.8
2022-11-14T01:52:34.857Z,30.8
2022-11-14T02:03:20.269Z,30.8
2022-11-14T02:09:03.166Z,30.8
2022-11-14T02:14:40.664Z,31.1
2022-11-14T02:26:17.445Z,32.1
2022-11-14T02:31:41.414Z,32.7
2022-11-14T02:37:25.123Z,33.3
2022-11-14T02:43:03.199Z,33.9
2022-11-14T02:48:41.184Z,34.7
2022-11-14T02:54:19.350Z,35.4
2022-11-14T02:59:11.883Z,36
2022-11-14T03:08:51.887Z,37.3
2022-11-14T03:14:29.922Z,37.9
2022-11-14T03:19:37.170Z,38.4
2022-11-14T03:25:15.207Z,38.6
2022-11-14T03:30:52.198Z,38.7
2022-11-14T03:36:30.109Z,38.8
2022-11-14T03:42:10.461Z,38.8
2022-11-14T03:47:47.665Z,38.8
2022-11-14T03:53:25.787Z,38.6
2022-11-14T03:58:33.195Z,38.6
2022-11-14T04:03:39.898Z,38.6
2022-11-14T04:09:18.990Z,38.5
2022-11-14T04:15:01.595Z,38.5
2022-11-14T04:20:43.222Z,38.4
2022-11-14T04:25:51.349Z,38.4
2022-11-14T04:31:28.920Z,38.4
2022-11-14T04:36:51.217Z,38.3
2022-11-14T04:42:30.636Z,38.3
2022-11-14T04:48:08.928Z,38.3
2022-11-14T04:53:30.439Z,38.2
2022-11-14T04:58:52.698Z,38.2
2022-11-14T05:04:21.165Z,38.1
2022-11-14T05:09:58.923Z,38.1
2022-11-14T05:21:01.666Z,38.1
2022-11-14T05:31:34.003Z,37.9
2022-11-14T05:36:59.896Z,37.9
2022-11-14T05:47:28.252Z,37.8
2022-11-14T05:53:06.161Z,37.8
2022-11-14T05:58:49.100Z,37.8
2022-11-14T06:04:18.662Z,37.8
2022-11-14T06:09:57.185Z,37.7
2022-11-14T06:15:35.105Z,37.7
2022-11-14T06:21:13.633Z,37.6
2022-11-14T06:26:50.703Z,37.6
2022-11-14T06:32:32.223Z,37.6
2022-11-14T06:38:09.733Z,37.5
2022-11-14T06:43:47.794Z,37.5
2022-11-14T06:49:00.993Z,37.4
2022-11-14T06:54:43.509Z,37.4
2022-11-14T07:00:12.790Z,37.4
2022-11-14T07:05:34.726Z,37.3
2022-11-14T07:10:57.144Z,37.1
2022-11-14T07:16:18.170Z,36.8
2022-11-14T07:21:45.018Z,36.9
2022-11-14T07:27:07.282Z,36.7
2022-11-14T07:32:34.872Z,36.6
2022-11-14T07:37:56.745Z,36.7
2022-11-14T07:43:19.266Z,36.8
2022-11-14T07:48:41.639Z,36.8
2022-11-14T07:54:03.280Z,36.7
2022-11-14T07:59:29.263Z,36.7
2022-11-14T08:05:08.464Z,36.6
2022-11-14T08:10:33.527Z,36.5
2022-11-14T08:16:33.894Z,36.4
2022-11-14T08:21:56.687Z,36.4
2022-11-14T08:27:39.558Z,36.4
2022-11-14T08:33:07.060Z,36.4
2022-11-14T08:38:46.556Z,36.3
2022-11-14T08:44:23.957Z,36.3
2022-11-14T08:50:01.761Z,36.2
2022-11-14T08:55:41.386Z,36.2
2022-11-14T09:01:19.872Z,36.1
2022-11-14T09:07:03.585Z,36.1
2022-11-14T09:12:44.902Z,36.1
2022-11-14T09:18:28.413Z,35.9
2022-11-14T09:24:18.005Z,35.9
2022-11-14T09:29:59.824Z,35.9
2022-11-14T09:35:41.330Z,35.8
2022-11-14T09:41:24.400Z,35.8
2022-11-14T09:47:07.074Z,35.8
2022-11-14T09:52:50.665Z,35.7
2022-11-14T09:58:29.294Z,35.6
2022-11-14T10:03:57.315Z,35.6
2022-11-14T10:09:36.448Z,35.6
2022-11-14T10:20:38.687Z,35.4
2022-11-14T10:26:17.533Z,35.4
2022-11-14T10:32:01.154Z,35.4
2022-11-14T10:37:46.961Z,35.3
2022-11-14T10:43:54.366Z,35.3
2022-11-14T10:49:20.530Z,35.3
2022-11-14T10:54:58.397Z,35.2
2022-11-14T11:01:16.776Z,22.1
2022-11-14T11:07:48.642Z,38.1
2022-11-14T11:14:03.543Z,46.8
2022-11-14T11:19:38.180Z,47.5
2022-11-14T11:25:00.735Z,48.8
2022-11-14T11:30:39.119Z,49.9
2022-11-14T11:36:17.959Z,50.9
2022-11-14T11:43:24.161Z,51.8
2022-11-14T11:49:02.101Z,52.5
2022-11-14T11:54:24.553Z,53.1
2022-11-14T12:05:37.357Z,53.9
2022-11-14T12:11:51.139Z,54.2
2022-11-14T12:17:35.576Z,53.6
2022-11-14T12:23:20.817Z,53.9
2022-11-14T12:28:59.795Z,54.1
2022-11-14T12:34:44.197Z,54.3
2022-11-14T12:40:25.176Z,54.2
2022-11-14T12:46:06.605Z,54.2
2022-11-14T12:51:47.208Z,54.1
2022-11-14T12:57:27.483Z,54
2022-11-14T13:03:11.823Z,53.8
2022-11-14T13:08:24.083Z,53.6
2022-11-14T13:13:47.487Z,53.3
2022-11-14T13:19:30.398Z,52.9
2022-11-14T13:31:11.298Z,52
2022-11-14T13:36:54.844Z,51.4
2022-11-14T13:42:37.770Z,50.8
2022-11-14T13:48:16.553Z,50.2
2022-11-14T13:54:22.924Z,49.5
2022-11-14T14:00:01.581Z,48.8
2022-11-14T14:05:43.034Z,48.1
2022-11-14T14:11:26.620Z,47.4
2022-11-14T14:17:04.855Z,46.6
2022-11-14T14:22:49.837Z,45.8
2022-11-14T14:28:28.894Z,44.9
2022-11-14T14:34:11.123Z,42.3
2022-11-14T14:39:54.895Z,40.6
2022-11-14T14:45:37.899Z,39.6
2022-11-14T14:51:16.879Z,38.8
2022-11-14T14:56:59.547Z,38.2
2022-11-14T15:02:22.131Z,37.8
2022-11-14T15:08:06.695Z,37.3
2022-11-14T15:13:45.043Z,37.1
2022-11-14T15:19:29.979Z,36.8
2022-11-14T15:25:08.347Z,36.6
2022-11-14T15:30:31.172Z,36.4
2022-11-14T15:36:14.570Z,36.2
2022-11-14T15:42:23.237Z,36.1
2022-11-14T15:48:01.374Z,35.9
2022-11-14T15:53:39.621Z,35.8
2022-11-14T15:59:44.251Z,35.7
2022-11-14T16:05:21.950Z,35.6
2022-11-14T16:10:45.239Z,35.4
2022-11-14T16:16:13.697Z,35.3
2022-11-14T16:21:35.912Z,35.2
2022-11-14T16:27:02.647Z,35.1
2022-11-14T16:32:25.279Z,34.8
2022-11-14T16:37:47.515Z,34.4
2022-11-14T16:43:25.806Z,34.2
2022-11-14T16:48:40.336Z,33.9
2022-11-14T16:54:16.928Z,33.8
2022-11-14T16:59:54.252Z,33.8
2022-11-14T17:05:19.538Z,33.8
2022-11-14T17:10:48.188Z,33.8
2022-11-14T17:16:27.434Z,33.8
2022-11-14T17:32:27.942Z,33.6
2022-11-14T17:37:50.209Z,33.5
2022-11-14T17:43:27.573Z,33.3
2022-11-14T17:49:04.845Z,32.2
2022-11-14T17:54:32.491Z,31.3
2022-11-14T18:00:16.004Z,30.4
2022-11-14T18:05:44.793Z,29.1
2022-11-14T18:11:26.688Z,27.8
2022-11-14T18:17:21.900Z,26.6
2022-11-14T18:23:00.343Z,25.6
2022-11-14T18:28:38.126Z,24.9
2022-11-14T18:34:38.829Z,24.2
2022-11-14T18:45:28.458Z,23.3
2022-11-14T18:50:51.979Z,23
2022-11-14T19:01:43.894Z,22.4
2022-11-14T19:07:06.738Z,22.2
2022-11-14T19:12:51.041Z,22
2022-11-14T19:18:28.861Z,21.9
2022-11-14T19:24:11.260Z,21.7
2022-11-14T19:29:51.370Z,21.6
2022-11-14T19:35:18.952Z,21.4
2022-11-14T19:41:14.208Z,21.4
2022-11-14T19:46:52.582Z,21.4
2022-11-14T19:52:17.899Z,21.3
2022-11-14T19:57:56.172Z,21.2
2022-11-14T20:03:38.449Z,21.1
2022-11-14T20:09:17.143Z,21
2022-11-14T20:30:57.766Z,20.8
2022-11-14T20:36:57.000Z,20.8
2022-11-14T20:42:37.373Z,20.9
2022-11-14T20:53:23.670Z,21.4
2022-11-14T20:59:07.486Z,21.9
2022-11-14T21:04:46.579Z,22.4
2022-11-14T21:10:24.722Z,23.1
2022-11-14T21:16:02.381Z,23.8
2022-11-14T21:21:39.273Z,24.3
2022-11-14T21:27:07.431Z,24.7
2022-11-14T21:38:43.085Z,25.1
2022-11-14T21:44:26.299Z,25.3
2022-11-14T21:50:04.362Z,25.4
2022-11-14T22:00:35.947Z,25.4
2022-11-14T22:06:17.595Z,25.5
2022-11-14T22:11:57.331Z,25.5
2022-11-14T22:17:36.067Z,25.6
2022-11-14T22:23:03.727Z,25.6
2022-11-14T22:28:09.879Z,25.6
2022-11-14T22:33:47.344Z,25.5
2022-11-14T22:39:25.784Z,25.6
2022-11-14T22:45:09.804Z,25.5
2022-11-14T22:50:46.718Z,25.6
2022-11-14T23:01:15.382Z,25.5
2022-11-14T23:07:00.102Z,25.6
2022-11-14T23:12:38.487Z,25.5
2022-11-14T23:18:16.752Z,25.5
2022-11-14T23:23:40.738Z,25.5
2022-11-14T23:29:18.498Z,25.3
2022-11-14T23:34:56.112Z,25.6
2022-11-14T23:40:33.384Z,25.5
2022-11-14T23:46:10.332Z,25.4
2022-11-14T23:51:32.500Z,25.5
2022-11-14T23:57:09.663Z,25.4
